Disclaimer

Please do not use the information listed here in-flight or in-navigation, as they are not provided to us by the airports but are provided by volunteers, so they might be outdated.

Search


Regions


Airport information page

Radio informations:
IQUIQUE TWR - 118.9 MHz
IQUIQUE RDO - 127.3 MHz
Ground (GND) - 121.7 MHz
IQUIQUE APP - 122.7 MHz

Airport informations:
Latitude: 20° 32' 06.80" S
Longitude: 070° 10' 52.59" W
Elevation: 155 feet - 47 meters
Operating hours: 24 hour operations
Operating agency: Military-civil joint use airport
Timezone: UTC-4(-3DT)
Fuel: Jet A1, without icing nhibitor.

100/130 MIL Spec, low lead, aviation gasoline (BLUE)

Runway information:
18/36 - 10991 x 148 feet< - >3350 x 45 meters

Recent METARs:
SCDA 190400Z 35005KT 9999 OVC030 20/14 Q1015
SCDA 190400Z 35005KT 9999 OVC030 20/14 Q1015
SCDA 190500Z 05003KT 360V090 9999 BKN031 19/13 Q1014

Airport on the map: